createdAt,value
2019-04-28T00:01:25.873Z,12.30
2019-04-28T00:03:53.376Z,12.30
2019-04-28T00:06:21.202Z,12.30
2019-04-28T00:08:48.829Z,12.30
2019-04-28T00:11:16.590Z,12.30
2019-04-28T00:13:44.341Z,12.30
2019-04-28T00:16:14.989Z,12.30
2019-04-28T00:18:42.616Z,12.30
2019-04-28T00:24:41.645Z,12.30
2019-04-28T00:27:11.957Z,12.30
2019-04-28T00:29:45.584Z,12.30
2019-04-28T00:32:11.177Z,12.30
2019-04-28T00:34:41.038Z,12.30
2019-04-28T00:37:18.646Z,12.30
2019-04-28T00:39:46.229Z,12.30
2019-04-28T00:42:13.666Z,12.30
2019-04-28T00:44:43.318Z,12.30
2019-04-28T00:47:11.205Z,12.30
2019-04-28T00:49:48.019Z,12.30
2019-04-28T00:52:18.855Z,12.30
2019-04-28T00:54:47.379Z,12.30
2019-04-28T00:57:15.180Z,12.50
2019-04-28T00:59:54.084Z,12.30
2019-04-28T01:02:27.102Z,12.30
2019-04-28T01:04:54.761Z,12.30
2019-04-28T01:07:22.425Z,12.20
2019-04-28T01:09:51.592Z,12.20
2019-04-28T01:12:21.290Z,12.20
2019-04-28T01:14:49.784Z,12.20
2019-04-28T01:17:24.191Z,12.20
2019-04-28T01:19:53.901Z,12.20
2019-04-28T01:22:21.515Z,12.20
2019-04-28T01:24:49.674Z,12.20
2019-04-28T01:27:50.556Z,12.20
2019-04-28T01:30:39.991Z,12.20
2019-04-28T01:33:29.390Z,12.10
2019-04-28T01:35:57.086Z,12.10
2019-04-28T01:38:24.654Z,12.10
2019-04-28T01:40:52.280Z,12.10
2019-04-28T01:43:19.801Z,12.10
2019-04-28T01:45:47.459Z,12.10
2019-04-28T01:48:14.933Z,12.10
2019-04-28T01:50:42.435Z,12.10
2019-04-28T01:53:10.137Z,12.10
2019-04-28T01:55:39.323Z,12.10
2019-04-28T01:58:07.401Z,12.10
2019-04-28T02:00:35.107Z,12.10
2019-04-28T02:03:02.618Z,12.10
2019-04-28T02:05:29.991Z,12.10
2019-04-28T02:07:57.536Z,12.10
2019-04-28T02:10:25.168Z,12.10
2019-04-28T02:12:52.640Z,12.10
2019-04-28T02:15:20.290Z,12.10
2019-04-28T02:17:50.010Z,12.10
2019-04-28T02:20:20.183Z,12.00
2019-04-28T02:22:56.044Z,12.10
2019-04-28T02:25:24.597Z,12.10
2019-04-28T02:27:52.292Z,12.10
2019-04-28T02:30:22.632Z,12.10
2019-04-28T02:32:51.865Z,12.10
2019-04-28T02:35:21.381Z,12.10
2019-04-28T02:37:50.495Z,12.10
2019-04-28T02:40:20.735Z,12.10
2019-04-28T02:42:48.197Z,12.10
2019-04-28T02:45:21.515Z,12.10
2019-04-28T02:47:52.246Z,12.10
2019-04-28T02:50:30.490Z,12.10
2019-04-28T02:53:23.291Z,12.10
2019-04-28T02:55:51.502Z,12.10
2019-04-28T02:58:22.305Z,12.10
2019-04-28T03:01:02.925Z,12.10
2019-04-28T03:03:20.902Z,12.00
2019-04-28T03:05:47.787Z,12.10
2019-04-28T03:08:15.513Z,12.10
2019-04-28T03:10:43.159Z,12.10
2019-04-28T03:13:13.291Z,12.10
2019-04-28T03:15:41.434Z,12.10
2019-04-28T03:18:10.824Z,12.10
2019-04-28T03:20:38.583Z,12.00
2019-04-28T03:23:09.147Z,12.00
2019-04-28T03:25:45.859Z,12.20
2019-04-28T03:28:33.725Z,12.00
2019-04-28T03:31:51.001Z,12.00
2019-04-28T03:33:56.179Z,12.00
2019-04-28T03:36:24.057Z,11.90
2019-04-28T03:38:53.172Z,12.00
2019-04-28T03:41:21.239Z,12.00
2019-04-28T03:43:51.248Z,12.00
2019-04-28T03:46:22.955Z,12.00
2019-04-28T03:48:51.022Z,12.00
2019-04-28T03:51:21.218Z,12.00
2019-04-28T03:53:50.566Z,12.00
2019-04-28T03:56:17.525Z,12.00
2019-04-28T03:58:45.182Z,12.00
2019-04-28T04:01:12.818Z,12.00
2019-04-28T04:03:41.655Z,12.00
2019-04-28T04:06:10.504Z,12.00
2019-04-28T04:08:40.552Z,12.10
2019-04-28T04:11:13.131Z,12.00
2019-04-28T04:13:45.512Z,12.10
2019-04-28T04:16:24.920Z,12.10
2019-04-28T04:18:54.171Z,12.10
2019-04-28T04:21:21.807Z,12.10
2019-04-28T04:23:51.015Z,12.10
2019-04-28T04:26:21.052Z,12.10
2019-04-28T04:28:48.212Z,12.10
2019-04-28T04:31:15.637Z,11.80
2019-04-28T04:33:44.210Z,12.10
2019-04-28T04:36:12.072Z,12.10
2019-04-28T04:38:43.008Z,12.20
2019-04-28T04:41:11.238Z,12.10
2019-04-28T04:43:41.166Z,12.20
2019-04-28T04:46:17.095Z,12.20
2019-04-28T04:48:45.460Z,12.30
2019-04-28T04:51:13.183Z,12.30
2019-04-28T04:53:44.045Z,12.40
2019-04-28T04:56:12.519Z,12.40
2019-04-28T04:58:40.857Z,12.50
2019-04-28T05:01:27.670Z,12.50
2019-04-28T05:03:59.622Z,12.40
2019-04-28T05:06:34.188Z,12.50
2019-04-28T05:09:04.623Z,12.50
2019-04-28T05:11:32.453Z,12.60
2019-04-28T05:13:59.777Z,12.50
2019-04-28T05:16:27.093Z,12.50
2019-04-28T05:18:54.443Z,12.50
2019-04-28T05:21:22.048Z,12.60
2019-04-28T05:24:26.988Z,12.60
2019-04-28T05:26:54.411Z,12.70
2019-04-28T05:29:26.837Z,12.70
2019-04-28T05:31:54.943Z,12.80
2019-04-28T05:34:23.906Z,12.80
2019-04-28T05:36:50.632Z,12.90
2019-04-28T05:39:19.629Z,12.90
2019-04-28T05:41:50.444Z,12.90
2019-04-28T05:44:19.891Z,13.00
2019-04-28T05:46:47.266Z,13.00
2019-04-28T05:49:29.882Z,13.10
2019-04-28T05:52:02.380Z,13.10
2019-04-28T05:54:53.888Z,13.10
2019-04-28T05:57:27.339Z,13.20
2019-04-28T06:00:13.030Z,13.20
2019-04-28T06:02:54.118Z,13.10
2019-04-28T06:05:13.630Z,13.10
2019-04-28T06:07:52.707Z,13.20
2019-04-28T06:10:21.426Z,13.20
2019-04-28T06:12:49.624Z,13.20
2019-04-28T06:15:20.346Z,13.40
2019-04-28T06:17:49.775Z,13.30
2019-04-28T06:20:19.990Z,13.30
2019-04-28T06:22:47.432Z,13.30
2019-04-28T06:25:14.889Z,13.20
2019-04-28T06:27:43.617Z,13.20
2019-04-28T06:30:12.021Z,13.30
2019-04-28T06:32:39.578Z,13.10
2019-04-28T06:35:07.245Z,13.30
2019-04-28T06:37:35.028Z,13.40
2019-04-28T06:40:02.914Z,13.40
2019-04-28T06:42:30.574Z,13.40
2019-04-28T06:44:58.019Z,13.30
2019-04-28T06:47:25.481Z,13.40
2019-04-28T06:49:53.105Z,13.40
2019-04-28T06:52:22.686Z,13.40
2019-04-28T06:54:51.330Z,13.40
2019-04-28T06:57:20.042Z,12.60
2019-04-28T06:59:49.015Z,13.60
2019-04-28T07:02:16.633Z,13.40
2019-04-28T07:04:44.378Z,13.40
2019-04-28T07:07:13.278Z,13.40
2019-04-28T07:09:42.167Z,13.40
2019-04-28T07:12:11.119Z,13.40
2019-04-28T07:14:39.266Z,13.40
2019-04-28T07:17:07.600Z,13.40
2019-04-28T07:19:37.315Z,13.40
2019-04-28T07:22:20.025Z,13.50
2019-04-28T07:25:43.477Z,13.50
2019-04-28T07:28:14.051Z,13.50
2019-04-28T07:30:49.762Z,13.50
2019-04-28T07:33:18.197Z,13.60
2019-04-28T07:35:48.859Z,13.50
2019-04-28T07:38:19.678Z,13.50
2019-04-28T07:40:54.161Z,13.50
2019-04-28T07:43:25.953Z,13.50
2019-04-28T07:45:56.224Z,13.40
2019-04-28T07:48:26.214Z,13.30
2019-04-28T07:50:58.718Z,13.30
2019-04-28T07:53:33.140Z,13.30
2019-04-28T07:56:01.227Z,13.20
2019-04-28T07:58:28.708Z,13.10
2019-04-28T08:00:58.481Z,13.30
2019-04-28T08:03:28.175Z,13.20
2019-04-28T08:05:59.743Z,13.10
2019-04-28T08:08:31.031Z,13.20
2019-04-28T08:11:02.132Z,13.30
2019-04-28T08:13:31.903Z,13.30
2019-04-28T08:16:02.237Z,13.40
2019-04-28T08:18:31.666Z,13.60
2019-04-28T08:21:00.558Z,13.60
2019-04-28T08:23:28.791Z,13.70
2019-04-28T08:25:58.454Z,13.80
2019-04-28T08:28:27.505Z,13.70
2019-04-28T08:30:56.134Z,13.70
2019-04-28T08:34:02.122Z,13.60
2019-04-28T08:36:25.549Z,13.60
2019-04-28T08:38:53.758Z,13.60
2019-04-28T08:41:21.613Z,13.70
2019-04-28T08:43:50.411Z,13.70
2019-04-28T08:46:18.835Z,13.70
2019-04-28T08:48:48.228Z,13.70
2019-04-28T08:51:16.108Z,13.80
2019-04-28T08:53:44.131Z,13.80
2019-04-28T08:59:30.898Z,14.00
2019-04-28T09:02:00.617Z,14.10
2019-04-28T09:04:28.189Z,14.00
2019-04-28T09:06:56.139Z,14.10
2019-04-28T09:09:26.532Z,14.20
2019-04-28T09:15:37.249Z,14.20
2019-04-28T09:18:06.104Z,14.20
2019-04-28T09:20:36.344Z,14.20
2019-04-28T09:23:04.568Z,14.30
2019-04-28T09:25:32.095Z,14.30
2019-04-28T09:28:00.017Z,14.40
2019-04-28T09:30:28.068Z,14.40
2019-04-28T09:32:55.585Z,14.30
2019-04-28T09:35:23.260Z,14.20
2019-04-28T09:37:50.849Z,14.00
2019-04-28T09:40:18.674Z,14.00
2019-04-28T09:43:04.640Z,13.90
2019-04-28T09:45:37.101Z,13.90
2019-04-28T09:48:06.964Z,13.90
2019-04-28T09:50:36.029Z,13.80
2019-04-28T09:53:04.049Z,13.80
2019-04-28T09:55:32.942Z,13.70
2019-04-28T09:58:01.292Z,13.70
2019-04-28T10:00:28.984Z,13.60
2019-04-28T10:02:56.571Z,13.60
2019-04-28T10:05:24.167Z,13.60
2019-04-28T10:07:52.196Z,13.60
2019-04-28T10:10:19.963Z,13.70
2019-04-28T10:12:48.030Z,13.70
2019-04-28T10:15:16.724Z,13.90
2019-04-28T10:17:45.059Z,14.00
2019-04-28T10:20:13.228Z,14.00
2019-04-28T10:22:40.837Z,14.00
2019-04-28T10:25:12.853Z,14.10
2019-04-28T10:27:40.595Z,14.10
2019-04-28T10:30:09.142Z,14.20
2019-04-28T10:32:40.026Z,14.20
2019-04-28T10:35:08.742Z,14.40
2019-04-28T10:37:36.696Z,14.40
2019-04-28T10:40:11.396Z,14.40
2019-04-28T10:42:38.931Z,14.30
2019-04-28T10:45:09.439Z,14.40
2019-04-28T10:47:37.494Z,14.60
2019-04-28T10:50:07.863Z,14.80
2019-04-28T10:52:36.568Z,15.00
2019-04-28T10:55:04.496Z,15.10
2019-04-28T10:57:32.606Z,15.10
2019-04-28T11:00:03.994Z,15.00
2019-04-28T11:02:34.015Z,14.90
2019-04-28T11:05:09.932Z,14.70
2019-04-28T11:07:40.596Z,14.50
2019-04-28T11:10:15.631Z,14.40
2019-04-28T11:12:44.066Z,14.50
2019-04-28T11:15:30.425Z,14.60
2019-04-28T11:17:58.424Z,14.80
2019-04-28T11:20:25.952Z,14.90
2019-04-28T11:22:53.806Z,15.10
2019-04-28T11:25:23.955Z,15.30
2019-04-28T11:27:52.009Z,15.40
2019-04-28T11:30:20.469Z,15.40
2019-04-28T11:33:03.907Z,15.40
2019-04-28T11:35:31.698Z,15.20
2019-04-28T11:38:00.934Z,15.20
2019-04-28T11:40:30.332Z,15.20
2019-04-28T11:42:58.238Z,15.30
2019-04-28T11:45:26.744Z,15.40
2019-04-28T11:47:56.248Z,15.30
2019-04-28T11:50:24.657Z,15.20
2019-04-28T11:52:52.731Z,15.00
2019-04-28T11:55:22.329Z,14.90
2019-04-28T11:57:50.046Z,14.80
2019-04-28T12:00:25.079Z,14.80
2019-04-28T12:02:53.146Z,14.80
2019-04-28T12:05:33.997Z,14.90
2019-04-28T12:07:53.893Z,14.70
2019-04-28T12:10:26.705Z,14.70
2019-04-28T12:13:20.168Z,14.70
2019-04-28T12:16:06.590Z,14.70
2019-04-28T12:18:44.721Z,14.70
2019-04-28T12:21:13.150Z,14.70
2019-04-28T12:23:40.785Z,14.70
2019-04-28T12:26:08.518Z,14.70
2019-04-28T12:28:36.422Z,14.70
2019-04-28T12:31:05.006Z,14.60
2019-04-28T12:33:32.799Z,14.50
2019-04-28T12:36:00.452Z,14.50
2019-04-28T12:38:28.151Z,14.50
2019-04-28T12:40:57.157Z,14.50
2019-04-28T12:43:27.098Z,14.50
2019-04-28T12:45:56.566Z,14.60
2019-04-28T12:48:24.267Z,14.70
2019-04-28T12:50:52.264Z,14.60
2019-04-28T12:53:21.110Z,14.70
2019-04-28T12:55:49.088Z,14.60
2019-04-28T12:58:17.159Z,14.70
2019-04-28T13:01:22.647Z,14.80
2019-04-28T13:04:14.842Z,14.80
2019-04-28T13:06:59.634Z,14.80
2019-04-28T13:09:27.403Z,14.70
2019-04-28T13:11:56.470Z,14.70
2019-04-28T13:14:27.276Z,14.60
2019-04-28T13:16:55.121Z,14.60
2019-04-28T13:19:23.262Z,14.50
2019-04-28T13:21:50.940Z,14.40
2019-04-28T13:24:21.589Z,14.40
2019-04-28T13:26:52.169Z,14.40
2019-04-28T13:29:24.169Z,14.40
2019-04-28T13:31:52.428Z,14.20
2019-04-28T13:34:21.890Z,14.20
2019-04-28T13:37:45.000Z,14.00
2019-04-28T13:40:18.398Z,14.00
2019-04-28T13:42:46.435Z,13.80
2019-04-28T13:45:18.786Z,13.70
2019-04-28T13:47:46.279Z,13.50
2019-04-28T13:50:23.415Z,13.50
2019-04-28T13:52:51.187Z,13.40
2019-04-28T13:55:37.439Z,13.40
2019-04-28T13:58:05.299Z,13.40
2019-04-28T14:01:10.717Z,13.30
2019-04-28T14:03:53.671Z,13.30
2019-04-28T14:06:28.434Z,13.20
2019-04-28T14:08:51.763Z,13.30
2019-04-28T14:11:19.377Z,13.20
2019-04-28T14:13:46.930Z,13.10
2019-04-28T14:16:15.123Z,13.10
2019-04-28T14:18:42.588Z,13.10
2019-04-28T14:21:37.677Z,13.00
2019-04-28T14:24:06.187Z,13.00
2019-04-28T14:26:33.845Z,12.90
2019-04-28T14:29:01.466Z,12.90
2019-04-28T14:31:29.876Z,12.90
2019-04-28T14:33:57.656Z,12.90
2019-04-28T14:36:25.727Z,12.90
2019-04-28T14:38:53.213Z,12.80
2019-04-28T14:41:20.773Z,13.00
2019-04-28T14:43:48.360Z,12.80
2019-04-28T14:46:15.963Z,12.80
2019-04-28T14:48:44.001Z,12.80
2019-04-28T14:51:11.639Z,12.80
2019-04-28T14:53:39.640Z,12.90
2019-04-28T14:56:07.696Z,12.80
2019-04-28T14:58:35.094Z,12.80
2019-04-28T15:01:13.341Z,12.80
2019-04-28T15:03:43.795Z,12.80
2019-04-28T15:06:26.749Z,12.80
2019-04-28T15:09:12.781Z,12.80
2019-04-28T15:11:48.705Z,12.80
2019-04-28T15:14:16.620Z,12.80
2019-04-28T15:16:44.399Z,12.90
2019-04-28T15:19:12.191Z,12.80
2019-04-28T15:21:40.162Z,12.80
2019-04-28T15:24:09.222Z,12.90
2019-04-28T15:26:36.885Z,12.90
2019-04-28T15:29:05.839Z,12.90
2019-04-28T15:31:34.057Z,12.80
2019-04-28T15:34:01.637Z,12.80
2019-04-28T15:36:29.298Z,12.80
2019-04-28T15:38:56.981Z,12.80
2019-04-28T15:41:24.887Z,12.70
2019-04-28T15:43:52.471Z,12.60
2019-04-28T15:46:20.279Z,12.50
2019-04-28T15:48:47.715Z,12.50
2019-04-28T15:51:16.981Z,12.50
2019-04-28T15:53:48.035Z,12.50
2019-04-28T15:56:34.699Z,12.40
2019-04-28T15:59:03.167Z,12.40
2019-04-28T16:01:30.869Z,12.70
2019-04-28T16:03:58.367Z,12.40
2019-04-28T16:06:26.051Z,12.40
2019-04-28T16:08:53.693Z,12.60
2019-04-28T16:11:21.353Z,12.40
2019-04-28T16:13:48.872Z,12.30
2019-04-28T16:16:16.662Z,12.30
2019-04-28T16:18:44.541Z,12.20
2019-04-28T16:21:13.432Z,12.20
2019-04-28T16:23:41.109Z,12.20
2019-04-28T16:26:08.966Z,12.20
2019-04-28T16:28:36.380Z,12.10
2019-04-28T16:31:04.007Z,12.10
2019-04-28T16:33:31.428Z,12.00
2019-04-28T16:35:59.007Z,12.00
2019-04-28T16:38:26.807Z,11.90
2019-04-28T16:40:57.716Z,11.90
2019-04-28T16:43:41.975Z,11.90
2019-04-28T16:46:09.664Z,11.80
2019-04-28T16:48:37.456Z,11.80
2019-04-28T16:51:05.256Z,11.80
2019-04-28T16:53:34.011Z,11.70
2019-04-28T16:56:24.735Z,11.70
2019-04-28T16:58:58.228Z,11.70
2019-04-28T17:01:48.338Z,11.70
2019-04-28T17:04:16.448Z,11.60
2019-04-28T17:06:44.063Z,11.60
2019-04-28T17:09:13.630Z,11.60
2019-04-28T17:11:41.750Z,11.50
2019-04-28T17:14:10.290Z,11.50
2019-04-28T17:16:38.307Z,11.50
2019-04-28T17:19:07.595Z,11.50
2019-04-28T17:21:35.291Z,11.50
2019-04-28T17:24:03.267Z,11.40
2019-04-28T17:26:32.184Z,11.40
2019-04-28T17:29:01.328Z,11.40
2019-04-28T17:31:29.843Z,11.40
2019-04-28T17:33:57.631Z,11.40
2019-04-28T17:36:25.280Z,11.40
2019-04-28T17:38:53.164Z,11.40
2019-04-28T17:41:21.355Z,11.40
2019-04-28T17:43:49.332Z,11.40
2019-04-28T17:46:18.165Z,11.30
2019-04-28T17:48:52.312Z,11.30
2019-04-28T17:51:19.814Z,11.20
2019-04-28T17:53:48.177Z,11.30
2019-04-28T17:56:16.605Z,11.20
2019-04-28T17:58:44.440Z,11.30
2019-04-28T18:01:34.848Z,11.20
2019-04-28T18:04:31.253Z,11.20
2019-04-28T18:07:04.567Z,11.20
2019-04-28T18:09:32.297Z,11.20
2019-04-28T18:11:59.904Z,11.10
2019-04-28T18:14:32.540Z,11.10
2019-04-28T18:17:25.859Z,11.10
2019-04-28T18:19:54.079Z,11.10
2019-04-28T18:22:23.290Z,11.10
2019-04-28T18:24:51.137Z,11.10
2019-04-28T18:27:19.306Z,11.10
2019-04-28T18:29:46.915Z,11.10
2019-04-28T18:32:40.335Z,11.10
2019-04-28T18:35:13.947Z,11.00
2019-04-28T18:38:06.974Z,11.00
2019-04-28T18:40:43.510Z,10.90
2019-04-28T18:43:17.372Z,10.90
2019-04-28T18:45:45.847Z,10.90
2019-04-28T18:48:13.446Z,11.00
2019-04-28T18:50:41.062Z,10.90
2019-04-28T18:53:09.315Z,10.90
2019-04-28T18:55:37.118Z,10.80
2019-04-28T18:58:05.406Z,10.80
2019-04-28T19:00:35.502Z,10.80
2019-04-28T19:03:04.117Z,10.80
2019-04-28T19:05:34.480Z,10.80
2019-04-28T19:08:30.640Z,10.80
2019-04-28T19:11:05.791Z,10.80
2019-04-28T19:13:37.253Z,10.80
2019-04-28T19:16:26.711Z,10.80
2019-04-28T19:18:57.356Z,10.80
2019-04-28T19:21:25.726Z,10.80
2019-04-28T19:23:54.217Z,10.70
2019-04-28T19:26:21.996Z,10.80
2019-04-28T19:28:49.470Z,10.80
2019-04-28T19:31:17.173Z,10.80
2019-04-28T19:33:44.900Z,10.80
2019-04-28T19:36:12.402Z,10.80
2019-04-28T19:38:39.890Z,10.80
2019-04-28T19:41:07.384Z,10.80
2019-04-28T19:43:34.848Z,10.80
2019-04-28T19:46:06.429Z,10.80
2019-04-28T19:48:34.080Z,10.80
2019-04-28T19:51:01.719Z,10.90
2019-04-28T19:53:31.928Z,11.20
2019-04-28T19:56:05.701Z,10.80
2019-04-28T19:58:40.303Z,10.80
2019-04-28T20:01:13.799Z,10.80
2019-04-28T20:03:41.117Z,10.80
2019-04-28T20:06:08.841Z,10.80
2019-04-28T20:08:36.569Z,10.70
2019-04-28T20:11:04.166Z,10.90
2019-04-28T20:13:32.046Z,10.70
2019-04-28T20:15:59.527Z,10.70
2019-04-28T20:18:29.567Z,10.70
2019-04-28T20:20:57.447Z,10.70
2019-04-28T20:23:25.107Z,10.70
2019-04-28T20:25:53.458Z,10.70
2019-04-28T20:28:21.181Z,10.70
2019-04-28T20:30:51.207Z,10.60
2019-04-28T20:33:20.178Z,10.70
2019-04-28T20:35:52.896Z,10.70
2019-04-28T20:38:33.835Z,10.70
2019-04-28T20:41:18.716Z,10.70
2019-04-28T20:43:46.133Z,10.70
2019-04-28T20:46:13.724Z,10.90
2019-04-28T20:48:41.339Z,10.70
2019-04-28T20:51:08.959Z,10.70
2019-04-28T20:53:36.544Z,10.70
2019-04-28T20:56:04.250Z,10.70
2019-04-28T20:58:31.846Z,10.70
2019-04-28T21:00:59.206Z,10.70
2019-04-28T21:03:27.681Z,10.70
2019-04-28T21:05:55.994Z,10.70
2019-04-28T21:08:23.524Z,10.70
2019-04-28T21:10:51.183Z,10.60
2019-04-28T21:13:18.570Z,10.70
2019-04-28T21:15:46.371Z,10.60
2019-04-28T21:18:13.926Z,10.70
2019-04-28T21:20:42.485Z,10.30
2019-04-28T21:23:09.900Z,10.60
2019-04-28T21:25:37.459Z,10.60
2019-04-28T21:28:05.056Z,10.80
2019-04-28T21:30:32.544Z,10.50
2019-04-28T21:33:00.024Z,10.50
2019-04-28T21:35:27.594Z,10.50
2019-04-28T21:37:55.026Z,10.50
2019-04-28T21:40:23.083Z,10.50
2019-04-28T21:43:00.167Z,10.60
2019-04-28T21:46:05.284Z,10.50
2019-04-28T21:48:36.973Z,10.50
2019-04-28T21:51:04.696Z,10.50
2019-04-28T21:53:32.154Z,10.50
2019-04-28T21:56:00.564Z,10.50
2019-04-28T21:58:33.324Z,10.50
2019-04-28T22:00:58.021Z,10.50
2019-04-28T22:03:25.497Z,10.50
2019-04-28T22:05:53.051Z,10.50
2019-04-28T22:08:20.543Z,10.50
2019-04-28T22:10:49.259Z,10.50
2019-04-28T22:13:16.697Z,10.50
2019-04-28T22:15:47.052Z,10.50
2019-04-28T22:18:14.644Z,10.50
2019-04-28T22:20:43.129Z,10.50
2019-04-28T22:23:18.810Z,10.50
2019-04-28T22:25:43.839Z,10.50
2019-04-28T22:28:11.220Z,10.50
2019-04-28T22:30:38.605Z,10.50
2019-04-28T22:33:06.168Z,10.40
2019-04-28T22:35:33.563Z,10.40
2019-04-28T22:38:01.145Z,10.40
2019-04-28T22:40:28.577Z,10.50
2019-04-28T22:42:56.099Z,10.40
2019-04-28T22:45:23.586Z,10.50
2019-04-28T22:47:52.211Z,10.50
2019-04-28T22:50:42.628Z,10.50
2019-04-28T22:53:10.507Z,10.50
2019-04-28T22:55:47.036Z,10.50
2019-04-28T22:58:40.776Z,10.50
2019-04-28T23:01:13.687Z,10.40
2019-04-28T23:04:10.102Z,10.50
2019-04-28T23:06:39.503Z,10.50
2019-04-28T23:09:10.681Z,10.50
2019-04-28T23:11:40.715Z,10.50
2019-04-28T23:14:08.356Z,10.50
2019-04-28T23:16:37.079Z,10.50
2019-04-28T23:19:07.558Z,10.50
2019-04-28T23:21:55.918Z,10.40
2019-04-28T23:24:23.812Z,10.50
2019-04-28T23:26:51.452Z,10.50
2019-04-28T23:29:20.991Z,10.50
2019-04-28T23:31:48.679Z,10.50
2019-04-28T23:34:16.341Z,10.50
2019-04-28T23:36:43.966Z,10.40
2019-04-28T23:39:11.501Z,10.40
2019-04-28T23:41:46.036Z,10.40
2019-04-28T23:44:13.913Z,10.40
2019-04-28T23:46:58.122Z,10.40
2019-04-28T23:49:27.843Z,10.50
2019-04-28T23:52:15.536Z,10.50
2019-04-28T23:54:44.931Z,10.50
2019-04-28T23:57:12.458Z,10.50
2019-04-28T23:59:39.844Z,10.50
